Wind From: 10-12-2017 19:04 Until: 11-12-2017 16:00 warning for: Wind Level: Orange info button

Power and phone distribution networks may be disrupted for relatively long periods., Roofs and chimneys can be damaged. , Tree branches may break. , Vehicles can be deported. , Traffic may be disrupted, particularly on secondary roads in forest areas. Limit your trips. , Limit your speed in highway driving, especially if you drive a vehicle or hitch sensitive to wind. , Do not go for walks in forests or along the coast., In town, be vigilant against possible falling objects., Do not work on roofs and do not touch any electrical line fallen on the ground., Store or secure sensitive objects to wind or likely to be damaged., Always install power generators outside buildings. 


Meteo18 Weather Cam more information Meteo18 Weather Cam


Thunder radar more information blitzortung!


Rain radar more information rain snow radar


Visit our other weather sites:

Template documentation
and downloads

And another site



Weather Underground History page Text

Daily Summary for August 8, 2017 Units:  English    Metric   Both
« Previous Day
Next Day »
Daily Weekly Monthly Yearly Custom
  High: Low: Average:
Temperature: 70.3 °F 58.3 °F 63.3 °F
Dew Point: 61 °F 50.4 °F 56.5 °F
Humidity: 94 % 61 % 79 %
Wind Speed: 21 mph 0 mph 4.2 mph
Wind Gust: 30 mph - -
Wind:- - WSW
Pressure: 30.1 in 29.8 in -
Precipitation: 0.44 in    
Historical Graphs
 
 
Tabular Data for August 8, 2017
Time Temperature Dew Point Pressure Wind Wind Speed Wind Gust Humidity Rainfall Rate (Hourly)
00:02 64.9 °F 57.6 °F 29.9 in WNW 2 mph 2 mph 77 % 0 in
00:07 64.6 °F 57.6 °F 29.9 in WNW 1 mph 3 mph 78 % 0 in
00:12 64.2 °F 57.2 °F 29.9 in Calm   3 mph 78 % 0 in
00:17 64.2 °F 57.6 °F 29.9 in West 1 mph 3 mph 79 % 0 in
00:22 64.4 °F 57.7 °F 29.9 in Calm   3 mph 79 % 0 in
00:27 64.6 °F 57.9 °F 29.9 in Calm   2 mph 79 % 0 in
00:32 64.6 °F 57.9 °F 29.9 in Calm   1 mph 79 % 0 in
00:42 64.2 °F 58.3 °F 29.9 in NW 1 mph 1 mph 81 % 0 in
00:47 64 °F 57.7 °F 29.9 in Calm   2 mph 80 % 0 in
00:52 64.2 °F 57.6 °F 29.9 in Calm   2 mph 79 % 0 in
00:57 64.6 °F 57.6 °F 29.9 in Calm   2 mph 78 % 0 in
01:02 64.6 °F 57.6 °F 29.9 in Calm   1 mph 78 % 0 in
01:07 64.8 °F 58.1 °F 29.9 in Calm   2 mph 79 % 0 in
01:12 64.6 °F 57.6 °F 29.9 in Calm   2 mph 78 % 0 in
01:17 64.4 °F 58.8 °F 29.9 in SE 1 mph 2 mph 82 % 0 in
01:22 63.9 °F 59.2 °F 29.9 in SSE 1 mph 3 mph 85 % 0 in
01:27 63.5 °F 59.2 °F 29.9 in Calm   3 mph 86 % 0 in
01:32 63.3 °F 59.4 °F 29.9 in Calm   2 mph 87 % 0 in
01:37 63.1 °F 59.2 °F 29.9 in Calm   2 mph 87 % 0 in
01:42 63 °F 59.4 °F 29.9 in Calm   2 mph 88 % 0 in
01:47 63 °F 59.4 °F 29.9 in Calm   1 mph 88 % 0 in
01:52 62.8 °F 58.8 °F 29.9 in Calm   1 mph 87 % 0 in
01:57 62.8 °F 58.5 °F 29.9 in Calm   1 mph 86 % 0 in
02:02 63 °F 57.7 °F 29.9 in Calm   1 mph 83 % 0 in
02:07 63.3 °F 57.7 °F 29.9 in Calm   1 mph 82 % 0 in
02:12 63.5 °F 57.9 °F 29.9 in Calm   1 mph 82 % 0 in
02:17 63.5 °F 57.9 °F 29.9 in WNW 1 mph 1 mph 82 % 0 in
02:22 63.3 °F 57.7 °F 29.9 in Calm   1 mph 82 % 0 in
02:27 63.3 °F 57.4 °F 29.9 in WNW 1 mph 1 mph 81 % 0 in
02:32 63.1 °F 56.8 °F 29.9 in Calm   3 mph 80 % 0 in
02:37 63.1 °F 56.8 °F 29.9 in Calm   3 mph 80 % 0 in
02:42 63.3 °F 57 °F 29.9 in Calm   3 mph 80 % 0 in
02:52 63.5 °F 56.8 °F 29.9 in NNE 1 mph 2 mph 79 % 0 in
02:57 63.7 °F 56.7 °F 29.9 in Calm   2 mph 78 % 0 in
03:02 63.7 °F 56.3 °F 29.9 in WNW 1 mph 2 mph 77 % 0 in
03:07 63.7 °F 56.3 °F 29.9 in Calm   2 mph 77 % 0 in
03:12 63.7 °F 56.3 °F 29.9 in Calm   2 mph 77 % 0 in
03:17 63.7 °F 56.3 °F 29.9 in Calm   2 mph 77 % 0 in
03:22 63.9 °F 56.1 °F 29.9 in NW 1 mph 3 mph 76 % 0 in
03:27 64.2 °F 56.1 °F 29.9 in WNW 2 mph 3 mph 75 % 0 in
03:32 64.6 °F 55.8 °F 29.9 in Calm   3 mph 73 % 0 in
03:37 64.6 °F 55.8 °F 29.9 in Calm   3 mph 73 % 0 in
03:42 64.8 °F 55.6 °F 29.9 in WSW 1 mph 3 mph 72 % 0 in
03:52 64.9 °F 55.8 °F 29.9 in WSW 6 mph 8 mph 72 % 0 in
03:57 65.3 °F 54.9 °F 29.9 in WSW 15 mph 15 mph 69 % 0 in
04:02 64.2 °F 56.1 °F 29.9 in West 10 mph 19 mph 75 % 0.02 in
04:07 63.1 °F 56.5 °F 29.9 in WNW 4 mph 20 mph 79 % 0.02 in
04:12 62.4 °F 56.8 °F 29.9 in WNW 5 mph 20 mph 82 % 0.02 in
04:17 62.1 °F 56.8 °F 29.9 in NW 1 mph 20 mph 83 % 0.02 in
04:27 61.2 °F 57 °F 29.9 in NW 5 mph 10 mph 86 % 0.03 in
04:32 61 °F 56.8 °F 29.9 in West 1 mph 10 mph 86 % 0.03 in
04:42 60.8 °F 56.8 °F 29.9 in WSW 5 mph 9 mph 87 % 0.04 in
04:47 60.8 °F 56.8 °F 29.9 in Calm   8 mph 87 % 0.04 in
04:52 60.6 °F 56.7 °F 29.9 in WSW 5 mph 8 mph 87 % 0.05 in
04:57 60.6 °F 57 °F 29.9 in SW 1 mph 8 mph 88 % 0.04 in
05:02 60.4 °F 56.8 °F 29.9 in Calm   6 mph 88 % 0.03 in
05:07 60.4 °F 56.8 °F 29.9 in Calm   6 mph 88 % 0.04 in
05:12 60.4 °F 56.8 °F 29.9 in Calm   4 mph 88 % 0.04 in
05:22 60.3 °F 56.7 °F 29.9 in Calm   5 mph 88 % 0.03 in
05:32 59.9 °F 57 °F 29.8 in Calm   5 mph 90 % 0.03 in
05:37 59.9 °F 57 °F 29.8 in Calm   3 mph 90 % 0.02 in
05:42 59.7 °F 57 °F 29.8 in NE 5 mph 5 mph 91 % 0.02 in
05:47 59.7 °F 57 °F 29.8 in NE 2 mph 7 mph 91 % 0.04 in
05:52 59.7 °F 57 °F 29.8 in WNW 1 mph 7 mph 91 % 0.04 in
06:02 59.5 °F 57.2 °F 29.8 in Calm   3 mph 92 % 0.04 in
06:12 59.5 °F 57.2 °F 29.8 in East 2 mph 2 mph 92 % 0.03 in
06:17 59.4 °F 57.4 °F 29.8 in Calm   2 mph 93 % 0.02 in
06:22 59.4 °F 57.4 °F 29.8 in East 1 mph 2 mph 93 % 0.02 in
06:27 59.2 °F 57.2 °F 29.8 in Calm   2 mph 93 % 0.02 in
06:32 59.2 °F 57.2 °F 29.8 in East 1 mph 2 mph 93 % 0.02 in
06:42 59 °F 57 °F 29.8 in Calm   2 mph 93 % 0.02 in
06:47 58.8 °F 57 °F 29.8 in Calm   2 mph 94 % 0.02 in
06:52 58.8 °F 57 °F 29.9 in Calm   1 mph 94 % 0.01 in
06:57 58.8 °F 57 °F 29.9 in SSW 2 mph 2 mph 94 % 0 in
07:02 58.8 °F 57 °F 29.9 in WSW 4 mph 4 mph 94 % 0 in
07:12 59 °F 57.2 °F 29.9 in SW 2 mph 5 mph 94 % 0 in
07:17 59 °F 57.2 °F 29.9 in WSW 4 mph 9 mph 94 % 0 in
07:22 58.8 °F 57 °F 29.9 in WSW 3 mph 9 mph 94 % 0 in
07:32 59 °F 57.2 °F 29.9 in WSW 4 mph 8 mph 94 % 0 in
07:42 59 °F 57.2 °F 29.9 in WSW 3 mph 6 mph 94 % 0 in
07:52 58.8 °F 57 °F 29.9 in WSW 4 mph 9 mph 94 % 0 in
08:02 58.8 °F 57 °F 29.9 in SW 2 mph 7 mph 94 % 0 in
08:07 58.8 °F 57 °F 29.9 in SW 2 mph 11 mph 94 % 0 in
08:12 58.8 °F 57 °F 29.9 in NW 3 mph 11 mph 94 % 0 in
08:17 58.8 °F 57 °F 29.9 in WSW 7 mph 11 mph 94 % 0 in
08:22 59 °F 57.2 °F 29.9 in SW 5 mph 7 mph 94 % 0 in
08:27 59 °F 57.2 °F 29.9 in WSW 5 mph 7 mph 94 % 0 in
08:32 59.2 °F 57.4 °F 29.9 in SW 4 mph 8 mph 94 % 0 in
08:37 59.2 °F 57.4 °F 29.9 in SW 10 mph 12 mph 94 % 0 in
08:42 59.2 °F 57.4 °F 29.9 in WSW 4 mph 12 mph 94 % 0 in
08:47 59.4 °F 57.6 °F 29.9 in WSW 5 mph 12 mph 94 % 0 in
08:52 59.4 °F 57.6 °F 29.9 in SW 4 mph 12 mph 94 % 0 in
08:57 59.5 °F 57.6 °F 29.9 in SW 2 mph 7 mph 93 % 0 in
09:02 59.5 °F 57.6 °F 29.9 in SW 1 mph 9 mph 93 % 0 in
09:12 59.5 °F 57.6 °F 29.9 in WSW 3 mph 7 mph 93 % 0 in
09:17 59.7 °F 57.7 °F 29.9 in WSW 7 mph 7 mph 93 % 0 in
09:22 60.1 °F 58.1 °F 29.9 in West 7 mph 9 mph 93 % 0 in
09:32 61 °F 58.3 °F 29.9 in West 6 mph 11 mph 91 % 0 in
09:37 61.3 °F 58.5 °F 29.9 in West 7 mph 12 mph 90 % 0 in
09:42 61.3 °F 58.1 °F 29.9 in WSW 4 mph 12 mph 89 % 0 in
09:47 61.3 °F 58.1 °F 29.9 in WSW 4 mph 12 mph 89 % 0 in
09:57 61.3 °F 58.1 °F 29.9 in SW 9 mph 10 mph 89 % 0 in
10:02 61.2 °F 57.6 °F 29.9 in West 3 mph 10 mph 88 % 0 in
10:12 61.3 °F 57.7 °F 29.9 in West 6 mph 12 mph 88 % 0 in
10:17 61.5 °F 57.9 °F 29.9 in WSW 8 mph 12 mph 88 % 0 in
10:22 61.9 °F 58.3 °F 29.9 in SW 3 mph 11 mph 88 % 0 in
10:32 61.9 °F 57 °F 29.9 in West 10 mph 17 mph 84 % 0 in
10:42 61.9 °F 57.6 °F 29.9 in West 5 mph 17 mph 86 % 0 in
10:47 62.4 °F 58.5 °F 29.9 in WSW 9 mph 17 mph 87 % 0 in
10:52 63.1 °F 58.3 °F 29.9 in SW 9 mph 14 mph 84 % 0 in
11:02 64 °F 58.8 °F 29.9 in SW 6 mph 13 mph 83 % 0 in
11:12 64 °F 58.1 °F 29.9 in SW 12 mph 17 mph 81 % 0 in
11:17 63.9 °F 58.3 °F 29.9 in SW 12 mph 17 mph 82 % 0 in
11:22 63.7 °F 57.7 °F 29.9 in SW 10 mph 17 mph 81 % 0 in
11:32 63.7 °F 58.8 °F 29.9 in West 3 mph 17 mph 84 % 0 in
11:42 63.7 °F 58.8 °F 29.9 in West 4 mph 17 mph 84 % 0 in
11:47 63.7 °F 58.1 °F 29.9 in SW 9 mph 17 mph 82 % 0 in
11:52 63.9 °F 58.3 °F 29.9 in WNW 6 mph 17 mph 82 % 0 in
11:57 64.2 °F 57.9 °F 29.9 in WSW 10 mph 14 mph 80 % 0 in
12:02 64.2 °F 57.9 °F 29.9 in WSW 10 mph 18 mph 80 % 0 in
12:07 64.8 °F 58.1 °F 29.9 in WSW 7 mph 20 mph 79 % 0 in
12:12 65.1 °F 57.4 °F 29.9 in WSW 11 mph 20 mph 76 % 0 in
12:17 65.5 °F 57 °F 29.9 in West 11 mph 19 mph 74 % 0 in
12:22 65.1 °F 56.7 °F 29.9 in West 10 mph 19 mph 74 % 0 in
12:32 65.1 °F 57 °F 29.9 in West 7 mph 19 mph 75 % 0 in
12:42 65.3 °F 57.2 °F 29.9 in West 7 mph 18 mph 75 % 0 in
12:47 65.8 °F 58.1 °F 29.9 in WSW 3 mph 18 mph 76 % 0 in
12:52 66.6 °F 58.1 °F 29.9 in WSW 6 mph 18 mph 74 % 0 in
12:57 67.5 °F 58.5 °F 29.9 in West 4 mph 12 mph 73 % 0 in
13:02 67.3 °F 57.2 °F 29.9 in SW 12 mph 12 mph 70 % 0 in
13:07 67.1 °F 57.7 °F 29.9 in WSW 7 mph 18 mph 72 % 0 in
13:12 67.3 °F 57.6 °F 29.9 in WSW 7 mph 19 mph 71 % 0 in
13:17 67.3 °F 57.6 °F 29.9 in SW 8 mph 19 mph 71 % 0 in
13:22 67.5 °F 57 °F 29.9 in West 8 mph 19 mph 69 % 0 in
13:27 67.8 °F 58.1 °F 29.9 in WSW 9 mph 18 mph 71 % 0 in
13:32 68 °F 57.9 °F 29.9 in WSW 7 mph 18 mph 70 % 0 in
13:42 68.2 °F 57.6 °F 29.9 in SSW 4 mph 20 mph 69 % 0 in
13:47 68.7 °F 58.1 °F 29.9 in West 6 mph 20 mph 69 % 0 in
13:52 69.4 °F 57.6 °F 29.9 in SW 11 mph 20 mph 66 % 0 in
13:57 69.8 °F 57.6 °F 29.9 in WSW 12 mph 14 mph 65 % 0 in
14:02 69.6 °F 56.5 °F 29.9 in SW 5 mph 15 mph 63 % 0 in
14:07 69.6 °F 56.8 °F 29.9 in WSW 4 mph 15 mph 64 % 0 in
14:12 69.8 °F 56.1 °F 29.9 in SW 8 mph 17 mph 62 % 0 in
14:17 70.2 °F 57.9 °F 29.9 in SW 10 mph 17 mph 65 % 0 in
14:22 70.3 °F 57.2 °F 29.9 in SSW 9 mph 17 mph 63 % 0 in
14:27 70 °F 55.9 °F 29.9 in WSW 12 mph 18 mph 61 % 0 in
14:32 69.3 °F 56.1 °F 29.9 in WSW 7 mph 18 mph 63 % 0 in
14:37 69.3 °F 56.5 °F 29.9 in West 5 mph 18 mph 64 % 0 in
14:42 69.4 °F 56.3 °F 29.9 in West 9 mph 18 mph 63 % 0 in
14:47 69.4 °F 56.7 °F 29.9 in West 6 mph 16 mph 64 % 0 in
14:52 69.4 °F 56.7 °F 29.9 in WSW 6 mph 16 mph 64 % 0 in
14:57 69.6 °F 56.5 °F 29.9 in SW 9 mph 14 mph 63 % 0 in
15:02 69.3 °F 56.5 °F 29.9 in WNW 7 mph 16 mph 64 % 0 in
15:12 60.8 °F 55.6 °F 29.9 in NW 8 mph 30 mph 83 % 0.12 in
15:17 58.8 °F 55.9 °F 30 in WNW 6 mph 30 mph 90 % 0.22 in
15:22 58.6 °F 56.3 °F 30 in West 2 mph 30 mph 92 % 0.28 in
15:32 58.6 °F 56.3 °F 29.9 in WNW 5 mph 13 mph 92 % 0.35 in
15:37 58.6 °F 56.7 °F 29.9 in NW 5 mph 13 mph 93 % 0.35 in
15:42 59 °F 57 °F 29.9 in West 7 mph 11 mph 93 % 0.35 in
15:47 59.2 °F 56.8 °F 29.9 in West 4 mph 11 mph 92 % 0.35 in
15:52 59.4 °F 57 °F 29.9 in SW 2 mph 11 mph 92 % 0.35 in
15:57 59.5 °F 56.8 °F 29.9 in South 7 mph 11 mph 91 % 0.35 in
16:02 60.3 °F 57.9 °F 29.9 in SW 3 mph 8 mph 92 % 0.35 in
16:07 60.6 °F 57.7 °F 29.9 in SW 3 mph 10 mph 90 % 0.35 in
16:12 61.2 °F 58.3 °F 29.9 in WSW 4 mph 10 mph 90 % 0.2 in
16:17 61.9 °F 58.6 °F 29.9 in SW 5 mph 10 mph 89 % 0.09 in
16:22 62.4 °F 58.8 °F 29.9 in SSW 1 mph 9 mph 88 % 0.05 in
16:27 63.1 °F 59.9 °F 29.9 in SW 5 mph 9 mph 89 % 0.02 in
16:32 63.7 °F 60.1 °F 30 in SW 6 mph 9 mph 88 % 0.01 in
16:37 64.2 °F 61 °F 30 in SW 5 mph 9 mph 89 % 0 in
16:42 64.9 °F 60.6 °F 30 in SW 10 mph 11 mph 86 % 0 in
16:52 65.7 °F 59 °F 30 in West 9 mph 11 mph 79 % 0 in
16:57 65.8 °F 58.5 °F 30 in SW 9 mph 12 mph 77 % 0 in
17:02 65.8 °F 59.5 °F 30 in West 10 mph 13 mph 80 % 0 in
17:07 66.2 °F 58.1 °F 30 in WSW 4 mph 16 mph 75 % 0 in
17:12 66.4 °F 58.6 °F 30 in WSW 6 mph 16 mph 76 % 0 in
17:17 66.2 °F 58.1 °F 30 in SW 8 mph 16 mph 75 % 0 in
17:22 66.7 °F 58.6 °F 30 in WSW 8 mph 12 mph 75 % 0 in
17:32 67.1 °F 58.1 °F 30 in SW 8 mph 13 mph 73 % 0 in
17:37 67.3 °F 58.3 °F 30 in WSW 7 mph 13 mph 73 % 0 in
17:42 67.3 °F 55.9 °F 30 in West 7 mph 16 mph 67 % 0 in
17:47 67.1 °F 56.1 °F 30 in West 6 mph 17 mph 68 % 0 in
17:52 66.9 °F 56.8 °F 30 in NW 4 mph 17 mph 70 % 0 in
17:57 66.9 °F 57.6 °F 30 in West 5 mph 17 mph 72 % 0 in
18:02 67.1 °F 56.7 °F 30 in WSW 6 mph 12 mph 69 % 0 in
18:07 66.9 °F 56.8 °F 30 in SW 7 mph 10 mph 70 % 0 in
18:12 66.6 °F 56.5 °F 30 in WSW 2 mph 12 mph 70 % 0 in
18:17 66.7 °F 57.4 °F 30 in WSW 5 mph 13 mph 72 % 0 in
18:22 66.9 °F 57.2 °F 30 in WSW 3 mph 13 mph 71 % 0 in
18:32 66.6 °F 57.2 °F 30 in West 3 mph 12 mph 72 % 0 in
18:37 66.9 °F 57.6 °F 30 in West 3 mph 10 mph 72 % 0 in
18:42 67.3 °F 57.6 °F 30 in WSW 7 mph 10 mph 71 % 0 in
18:47 67.1 °F 57 °F 30 in WSW 8 mph 10 mph 70 % 0 in
18:52 66.9 °F 56.8 °F 30 in WSW 2 mph 11 mph 70 % 0 in
18:57 66.9 °F 56.8 °F 30 in WSW 7 mph 11 mph 70 % 0 in
19:02 66.9 °F 56.5 °F 30 in WSW 5 mph 12 mph 69 % 0 in
19:07 67.1 °F 56.1 °F 30 in SW 4 mph 12 mph 68 % 0 in
19:12 67.3 °F 55 °F 30 in West 21 mph 21 mph 65 % 0 in
19:17 67.6 °F 54.1 °F 30 in WSW 13 mph 21 mph 62 % 0 in
19:22 67.6 °F 54.1 °F 30 in West 8 mph 21 mph 62 % 0 in
19:27 67.6 °F 54.1 °F 30 in West 7 mph 21 mph 62 % 0 in
19:32 67.5 °F 54.5 °F 30 in WSW 10 mph 17 mph 63 % 0 in
19:37 67.3 °F 54.7 °F 30 in WSW 7 mph 14 mph 64 % 0 in
19:42 66.6 °F 54 °F 30 in West 7 mph 14 mph 64 % 0 in
19:47 66.4 °F 54.3 °F 30 in WNW 9 mph 14 mph 65 % 0 in
19:52 66.4 °F 55 °F 30 in WSW 5 mph 14 mph 67 % 0 in
19:57 66.4 °F 55 °F 30 in WNW 4 mph 13 mph 67 % 0 in
20:02 66.4 °F 55 °F 30 in SW 2 mph 11 mph 67 % 0 in
20:07 66.4 °F 55 °F 30 in WSW 3 mph 10 mph 67 % 0 in
20:12 66.2 °F 54.9 °F 30 in WSW 6 mph 9 mph 67 % 0 in
20:17 66.4 °F 55.6 °F 30 in WSW 5 mph 9 mph 68 % 0 in
20:22 66.4 °F 55.6 °F 30 in SW 5 mph 8 mph 68 % 0 in
20:27 66.4 °F 55.9 °F 30 in West 3 mph 9 mph 69 % 0 in
20:32 66.2 °F 55.4 °F 30 in WSW 4 mph 9 mph 68 % 0 in
20:37 65.7 °F 54.9 °F 30 in WSW 6 mph 9 mph 68 % 0 in
20:42 65.1 °F 53.1 °F 30 in WSW 6 mph 10 mph 65 % 0 in
20:47 64.8 °F 51.8 °F 30 in West 5 mph 10 mph 63 % 0 in
20:52 64.6 °F 50.9 °F 30 in WSW 5 mph 11 mph 61 % 0 in
20:57 64.2 °F 50.5 °F 30 in WSW 5 mph 12 mph 61 % 0 in
21:02 64 °F 50.4 °F 30 in SW 2 mph 12 mph 61 % 0 in
21:07 63.9 °F 51.1 °F 30 in SW 7 mph 12 mph 63 % 0 in
21:12 63.3 °F 50.9 °F 30 in SW 4 mph 12 mph 64 % 0 in
21:17 63.1 °F 51.3 °F 30 in SW 4 mph 11 mph 65 % 0 in
21:22 63 °F 51.8 °F 30 in WSW 6 mph 8 mph 67 % 0 in
21:27 62.6 °F 52.3 °F 30 in SW 5 mph 7 mph 69 % 0 in
21:32 62.4 °F 52.5 °F 30 in West 3 mph 7 mph 70 % 0 in
21:37 62.1 °F 52.9 °F 30 in WSW 5 mph 7 mph 72 % 0 in
21:42 62.1 °F 52.9 °F 30 in SW 1 mph 8 mph 72 % 0 in
21:47 61.9 °F 53.1 °F 30 in West 2 mph 8 mph 73 % 0 in
21:52 61.5 °F 53.2 °F 30 in West 2 mph 8 mph 74 % 0 in
21:57 61.3 °F 53.1 °F 30 in WSW 4 mph 6 mph 74 % 0 in
22:02 61.3 °F 52.7 °F 30 in West 3 mph 7 mph 73 % 0 in
22:07 61.2 °F 52.5 °F 30 in SW 3 mph 7 mph 73 % 0 in
22:12 61 °F 52.3 °F 30 in West 2 mph 7 mph 73 % 0 in
22:17 60.8 °F 52.5 °F 30 in West 2 mph 7 mph 74 % 0 in
22:22 60.4 °F 52.5 °F 30 in SW 1 mph 5 mph 75 % 0 in
22:32 60.3 °F 52.3 °F 30 in SSW 1 mph 3 mph 75 % 0 in
22:37 59.5 °F 52.3 °F 30 in SSW 2 mph 3 mph 77 % 0 in
22:42 59.4 °F 52.5 °F 30 in SW 2 mph 4 mph 78 % 0 in
22:47 59.2 °F 52.7 °F 30 in SW 2 mph 4 mph 79 % 0 in
22:52 59.4 °F 52.5 °F 30 in Calm   5 mph 78 % 0 in
22:57 59.2 °F 52.7 °F 30 in Calm   5 mph 79 % 0 in
23:02 58.8 °F 52.7 °F 30 in SW 2 mph 5 mph 80 % 0 in
23:07 58.8 °F 52.7 °F 30 in Calm   4 mph 80 % 0 in
23:12 59 °F 52.5 °F 30 in WSW 2 mph 4 mph 79 % 0 in
23:17 59.2 °F 52.3 °F 30 in SW 2 mph 8 mph 78 % 0 in
23:22 59.4 °F 52.5 °F 30 in SSW 1 mph 8 mph 78 % 0 in
23:27 58.8 °F 53.1 °F 30 in SSE 1 mph 7 mph 81 % 0 in
23:32 58.6 °F 53.2 °F 30 in SSW 2 mph 7 mph 82 % 0 in
23:42 58.5 °F 53.2 °F 30.1 in SSW 2 mph 5 mph 83 % 0 in
23:47 58.3 °F 53.1 °F 30.1 in SW 1 mph 5 mph 83 % 0 in
23:52 58.5 °F 53.2 °F 30.1 in SW 1 mph 4 mph 83 % 0 in
Meteo18
Compliments of Weather Underground - 4 mb

Script developed by  Jim McMurry - jmcmurry@mwt.net Adapted for the template by  Wim van der Kuil - Leuven-Template.eu

You find our weather info also at:

European Weather Network

Weather Underground

Equipment we use:

Weather-station
Davis Vue

Weather-program
Meteohub

Weather-server
Raspberry PI 2 B+

Provider
1 and 1

Davis Vue

Meteohub

Raspberry PI 2 B+

1 and 1